Contenu

METAR / TAF

La liste des METAR et des TAF n’est pas destinée pour un briefing météo pour des raisons techniques (disponibilité, cycle de renouvellement). Il faut plutôt utiliser le skybriefing de Skyguide ou le TAMSI (plateforme de self-briefing météo conçue par MétéoSuisse pour les entreprises dans le domaine de l’aéronautique, questions et demandes d’informations à 

Formulaire de contact

 

METAR Suisse

METAR     LFSB 250230Z AUTO 25006KT 9999 FEW016 BKN046 BKN052 15/13
               Q1021 TEMPO SCT030TCU=
METAR     LSGC 250220Z AUTO VRB02KT 4400 BR FEW007 OVC011 10/10 Q1022
               REDZ=
METAR     LSGC 250250Z AUTO VRB01KT 3400 -DZ BKN004 10/10 Q1022=
METAR     LSGG 250220Z AUTO 28003KT 9999 FEW075 13/11 Q1022 NOSIG=
METAR     LSGG 250250Z AUTO 24003KT 9999 NCD 13/11 Q1021 NOSIG=
METAR     LSGS 250220Z AUTO 00000KT CAVOK 14/13 Q1021=
METAR     LSGS 250250Z AUTO 00000KT CAVOK 14/13 Q1021=
METAR RRA LSMA 250220Z AUTO 00000KT 9999NDV -RA FEW004 BKN054 OVC075
               13/12 Q1022 RMK=
METAR RRA LSMA 250250Z AUTO 00000KT 9999NDV BKN041 OVC057 13/12 Q1022
               RMK=
METAR RRA LSMD 250220Z AUTO 17003KT 9999NDV FEW011 BKN034 15/13 Q1021
               RMK=
METAR RRA LSMD 250250Z AUTO 22003KT 190V250 9999NDV FEW032 BKN042
               15/13 Q1021 RMK=
METAR RRA LSME 250220Z AUTO 19004KT 150V240 9999NDV -SHRA FEW045
               BKN051 13/12 Q1022 RMK=
METAR RRA LSME 250250Z AUTO VRB02KT 9999NDV FEW029 BKN047 13/12 Q1021
               RMK=
METAR RRA LSMM 250220Z AUTO 00000KT 9999NDV FEW002 SCT048 OVC063
               12/12 Q1022 RMK=
METAR RRA LSMM 250250Z AUTO 00000KT 9999NDV SCT051 SCT058 OVC071
               12/12 Q1022 RMK=
METAR RRA LSMP 250220Z AUTO 20003KT 9999NDV SCT039 OVC046 15/13 Q1021
               RMK=
METAR RRA LSMP 250250Z AUTO 20003KT 9999NDV SCT037 OVC044 14/12 Q1021
               RMK=
METAR     LSZA 250220Z AUTO VRB02KT CAVOK 15/12 Q1017=
METAR     LSZA 250250Z AUTO VRB01KT CAVOK 14/12 Q1017=
METAR     LSZB 250220Z AUTO 10004KT 9999 -RA FEW009 BKN011 OVC013
               14/13 Q1021 REDZ=
METAR     LSZB 250250Z AUTO VRB01KT 4200 RA FEW009 SCT011 BKN015
               14/13 Q1021 REDZ=
METAR     LSZC 250220Z AUTO VRB01KT 9999 BKN050 13/12 Q1022=
METAR     LSZC 250250Z AUTO VRB01KT 9999 BKN046 13/12 Q1022=
METAR     LSZG 250220Z AUTO 21002KT 9999 SCT025 BKN033 14/13 Q1021=
METAR     LSZG 250250Z AUTO 19003KT 9999 BKN075 14/13 Q1021=
METAR     LSZH 250220Z AUTO VRB01KT 9999 SCT014 SCT019 BKN047 14/13
               Q1021 TEMPO BKN014=
METAR     LSZH 250250Z AUTO VRB01KT 9999 BKN012 14/13 Q1021 NOSIG=
METAR RRA LSZL 250220Z AUTO 04006KT 9999NDV NCD 14/13 Q1017 RMK=
METAR RRA LSZL 250250Z AUTO 00000KT 9999NDV NCD 13/13 Q1017 RMK=
METAR     LSZR 250220Z AUTO 11004KT 9999 SCT050 BKN080 16/14 Q1021=
METAR     LSZR 250250Z AUTO VRB02KT 9999 OVC050 16/14 Q1020=
METAR     LSZS 250220Z AUTO VRB01KT 8000 BKN002 06/06 Q1022=
METAR     LSZS 250250Z AUTO 00000KT 9999 SCT003 SCT005 OVC047 06/06
               Q1022=
Actualisé le vendredi 25 juin 2021 à 05h19

TAF Suisse

TAF     LFSB 242300Z 2500/2524 26006KT 9999 FEW030 BKN060 PROB40
             TEMPO 2500/2513 -SHRA SCT030TCU BECMG 2509/2511 35008KT=
TAF RRA LSGG 242325Z 2500/2606 VRB02KT 9999 FEW040 SCT050 TX23/2515Z
             TN14/2504Z TN14/2604Z BECMG 2510/2512 07008KT BECMG
             2518/2520 VRB02KT=
TAF     LSMA 241625Z 2417/2523 22004KT 8000 -RA FEW035 BKN045 TEMPO
             2417/2501 SHRA BKN014 FEW040TCU PROB30 TEMPO 2417/2421
             21018G30KT 4500 +TSRA SCT040CB PROB30 TEMPO 2502/2505
             0800 PRFG BKN008 PROB30 TEMPO 2510/2519 03010KT SHRA
             FEW045TCU=
TAF     LSMD 241625Z 2417/2523 30006KT 9999 -SHRA SCT040 TEMPO
             2417/2424 SHRA SCT040TCU PROB40 TEMPO 2417/2421
             28015G30KT 4500 +TSRA SCT040CB=
TAF     LSME 241625Z 2417/2523 22006KT 9999 BKN028 OVC060 TEMPO
             2417/2424 SHRA SCT040TCU PROB40 TEMPO 2417/2421
             28015G30KT 4500 +TSRA SCT040CB PROB30 2512/2517 SHRA
             SCT045TCU=
TAF     LSMM 241625Z 2417/2523 26008KT 9999 SCT010 BKN030 TEMPO
             2417/2424 SHRA BKN014 FEW040TCU PROB40 TEMPO 2417/2420
             21018G30KT 4500 +TSRA SCT040CB PROB40 TEMPO 2502/2506
             0800 PRFG BKN008 PROB30 TEMPO 2510/2517 SHRA FEW045TCU=
TAF     LSMP 241625Z 2417/2523 24010KT 9999 FEW040 BKN080 PROB30
             TEMPO 2417/2420 23015G30KT 4500 TSRA SCT050CB BECMG
             2419/2421 VRB02KT=
TAF     LSZH 242325Z 2500/2606 19003KT 9999 FEW013 BKN020 TX22/2515Z
             TN13/2504Z TN11/2604Z PROB30 2500/2506 BKN012 PROB40
             TEMPO 2509/2515 29007KT=
TAF     LSZL 241725Z 2418/2503 VRB02KT 9999 SCT040 BKN080 TEMPO
             2418/2420 SHRA SCT040CB PROB40 2421/2503 CAVOK=
Actualisé le vendredi 25 juin 2021 à 03h07